createdAt,value
2018-06-17T00:00:13.768Z,78.34
2018-06-17T00:00:54.276Z,78.44
2018-06-17T00:01:34.772Z,78.44
2018-06-17T00:02:15.257Z,78.44
2018-06-17T00:02:55.752Z,78.44
2018-06-17T00:03:36.218Z,78.73
2018-06-17T00:04:16.719Z,78.64
2018-06-17T00:04:57.207Z,79.02
2018-06-17T00:05:37.702Z,78.83
2018-06-17T00:06:18.210Z,78.25
2018-06-17T00:06:58.690Z,78.34
2018-06-17T00:07:39.192Z,79.02
2018-06-17T00:08:19.660Z,78.83
2018-06-17T00:09:00.163Z,78.92
2018-06-17T00:09:40.635Z,78.15
2018-06-17T00:10:21.150Z,78.25
2018-06-17T00:11:01.744Z,78.83
2018-06-17T00:11:42.173Z,78.44
2018-06-17T00:12:22.667Z,78.25
2018-06-17T00:13:03.175Z,78.44
2018-06-17T00:13:43.652Z,78.83
2018-06-17T00:14:24.170Z,77.86
2018-06-17T00:15:04.716Z,78.15
2018-06-17T00:15:45.177Z,77.67
2018-06-17T00:16:25.697Z,78.34
2018-06-17T00:17:06.198Z,77.67
2018-06-17T00:17:46.706Z,78.25
2018-06-17T00:18:27.165Z,78.44
2018-06-17T00:19:07.676Z,78.54
2018-06-17T00:19:48.180Z,78.54
2018-06-17T00:20:28.683Z,78.44
2018-06-17T00:21:09.184Z,78.34
2018-06-17T00:21:49.672Z,78.15
2018-06-17T00:22:30.151Z,78.06
2018-06-17T00:23:10.680Z,77.96
2018-06-17T00:23:51.172Z,77.96
2018-06-17T00:24:31.654Z,78.15
2018-06-17T00:25:12.166Z,78.44
2018-06-17T00:25:52.701Z,78.34
2018-06-17T00:26:33.172Z,77.86
2018-06-17T00:27:13.684Z,77.67
2018-06-17T00:27:54.176Z,77.57
2018-06-17T00:28:34.703Z,77.57
2018-06-17T00:29:15.181Z,77.67
2018-06-17T00:29:55.707Z,78.34
2018-06-17T00:30:36.296Z,78.06
2018-06-17T00:31:16.814Z,78.25
2018-06-17T00:31:57.301Z,78.15
2018-06-17T00:32:37.791Z,77.67
2018-06-17T00:33:18.280Z,77.76
2018-06-17T00:33:58.790Z,78.44
2018-06-17T00:34:39.277Z,78.44
2018-06-17T00:35:19.774Z,78.73
2018-06-17T00:36:00.269Z,78.73
2018-06-17T00:36:40.816Z,78.64
2018-06-17T00:37:21.282Z,78.83
2018-06-17T00:38:01.812Z,78.92
2018-06-17T00:38:42.311Z,78.41
2018-06-17T00:39:22.811Z,78.83
2018-06-17T00:40:03.321Z,78.92
2018-06-17T00:40:43.847Z,78.64
2018-06-17T00:41:24.346Z,78.06
2018-06-17T00:42:04.833Z,78.64
2018-06-17T00:42:45.391Z,78.06
2018-06-17T00:43:25.870Z,78.54
2018-06-17T00:44:06.320Z,78.44
2018-06-17T00:44:46.830Z,78.83
2018-06-17T00:45:27.329Z,78.34
2018-06-17T00:46:07.832Z,78.92
2018-06-17T00:46:48.319Z,78.5
2018-06-17T00:47:28.918Z,78.44
2018-06-17T00:48:09.413Z,78.64
2018-06-17T00:48:49.868Z,78.54
2018-06-17T00:49:30.334Z,78.64
2018-06-17T00:50:10.806Z,78.44
2018-06-17T00:50:51.307Z,78.83
2018-06-17T00:51:31.824Z,78.92
2018-06-17T00:52:12.310Z,78.83
2018-06-17T00:52:52.851Z,78.15
2018-06-17T00:53:33.334Z,78.44
2018-06-17T00:54:13.821Z,78.64
2018-06-17T00:54:54.283Z,78.83
2018-06-17T00:55:34.766Z,78.54
2018-06-17T00:56:15.309Z,78.92
2018-06-17T00:56:55.845Z,78.89
2018-06-17T00:57:36.300Z,79.02
2018-06-17T00:58:16.821Z,78.44
2018-06-17T00:58:57.311Z,78.89
2018-06-17T00:59:37.849Z,78.64
2018-06-17T01:00:18.298Z,78.64
2018-06-17T01:00:58.844Z,78.31
2018-06-17T01:01:39.409Z,79.37
2018-06-17T01:02:19.809Z,79.08
2018-06-17T01:03:00.299Z,78.79
2018-06-17T01:03:40.796Z,78.79
2018-06-17T01:04:21.295Z,78.99
2018-06-17T01:05:01.802Z,78.99
2018-06-17T01:05:42.306Z,79.17
2018-06-17T01:06:22.773Z,78.89
2018-06-17T01:07:03.307Z,78.99
2018-06-17T01:07:43.802Z,78.89
2018-06-17T01:08:24.278Z,79.17
2018-06-17T01:09:04.759Z,79.17
2018-06-17T01:09:45.254Z,78.83
2018-06-17T01:10:25.795Z,78.89
2018-06-17T01:11:06.305Z,79.02
2018-06-17T01:11:46.766Z,78.59
2018-06-17T01:12:27.323Z,79.02
2018-06-17T01:13:07.822Z,78.89
2018-06-17T01:13:48.323Z,79.41
2018-06-17T01:14:28.812Z,79.37
2018-06-17T01:15:09.304Z,78.83
2018-06-17T01:15:49.838Z,79.02
2018-06-17T01:16:30.291Z,78.44
2018-06-17T01:17:10.803Z,78.25
2018-06-17T01:17:51.302Z,78.64
2018-06-17T01:18:31.798Z,78.31
2018-06-17T01:19:12.313Z,78.54
2018-06-17T01:19:52.831Z,78.54
2018-06-17T01:20:33.359Z,78.44
2018-06-17T01:21:13.778Z,78.64
2018-06-17T01:21:54.302Z,78.54
2018-06-17T01:22:34.802Z,78.54
2018-06-17T01:23:15.309Z,78.44
2018-06-17T01:23:55.790Z,78.41
2018-06-17T01:24:36.290Z,79.02
2018-06-17T01:25:16.813Z,78.83
2018-06-17T01:25:57.235Z,78.83
2018-06-17T01:26:37.791Z,78.34
2018-06-17T01:27:18.272Z,78.83
2018-06-17T01:27:58.774Z,78.54
2018-06-17T01:28:39.309Z,78.44
2018-06-17T01:29:19.782Z,78.54
2018-06-17T01:30:00.367Z,79.12
2018-06-17T01:30:40.823Z,78.73
2018-06-17T01:31:21.311Z,79.02
2018-06-17T01:32:01.849Z,78.73
2018-06-17T01:32:42.360Z,79.22
2018-06-17T01:33:22.839Z,78.89
2018-06-17T01:34:03.374Z,78.99
2018-06-17T01:34:43.862Z,79.08
2018-06-17T01:35:24.372Z,79.08
2018-06-17T01:36:04.882Z,78.99
2018-06-17T01:36:45.393Z,78.99
2018-06-17T01:37:25.861Z,79.22
2018-06-17T01:38:06.415Z,79.75
2018-06-17T01:38:46.880Z,79.75
2018-06-17T01:39:27.400Z,79.08
2018-06-17T01:40:07.897Z,79.08
2018-06-17T01:40:48.383Z,79.47
2018-06-17T01:41:28.866Z,79.27
2018-06-17T01:42:09.334Z,79.27
2018-06-17T01:42:49.854Z,79.37
2018-06-17T01:43:30.316Z,79.37
2018-06-17T01:44:10.828Z,79.47
2018-06-17T01:44:51.304Z,79.37
2018-06-17T01:45:31.829Z,79.27
2018-06-17T01:46:12.328Z,79.37
2018-06-17T01:46:52.830Z,79.27
2018-06-17T01:47:33.352Z,79.27
2018-06-17T01:48:13.840Z,79.02
2018-06-17T01:48:54.351Z,78.92
2018-06-17T01:49:34.827Z,78.73
2018-06-17T01:50:15.343Z,78.92
2018-06-17T01:50:55.842Z,79.56
2018-06-17T01:51:36.333Z,78.92
2018-06-17T01:52:16.790Z,79.12
2018-06-17T01:52:57.320Z,79.12
2018-06-17T01:53:37.880Z,78.92
2018-06-17T01:54:18.311Z,79.02
2018-06-17T01:54:58.850Z,79.02
2018-06-17T01:55:39.319Z,79.02
2018-06-17T01:56:19.799Z,79.47
2018-06-17T01:57:00.330Z,79.37
2018-06-17T01:57:40.813Z,78.89
2018-06-17T01:58:21.365Z,79.02
2018-06-17T01:59:01.846Z,79.22
2018-06-17T01:59:42.370Z,79.02
2018-06-17T02:00:22.808Z,79.12
2018-06-17T02:01:03.329Z,79.5
2018-06-17T02:01:43.809Z,78.92
2018-06-17T02:02:24.368Z,78.92
2018-06-17T02:03:04.793Z,78.92
2018-06-17T02:03:45.322Z,78.83
2018-06-17T02:04:25.820Z,79.5
2018-06-17T02:05:06.279Z,79.5
2018-06-17T02:05:46.786Z,79.41
2018-06-17T02:06:27.311Z,79.99
2018-06-17T02:07:07.916Z,80.33
2018-06-17T02:07:48.465Z,79.75
2018-06-17T02:08:28.960Z,80.33
2018-06-17T02:09:09.445Z,80.62
2018-06-17T02:09:49.962Z,79.95
2018-06-17T02:10:30.429Z,80.91
2018-06-17T02:11:10.896Z,80.91
2018-06-17T02:11:51.450Z,80.91
2018-06-17T02:12:31.924Z,80.53
2018-06-17T02:13:12.561Z,81.3
2018-06-17T02:13:52.899Z,80.82
2018-06-17T02:14:33.355Z,81.01
2018-06-17T02:15:13.837Z,81.2
2018-06-17T02:15:54.334Z,81.3
2018-06-17T02:16:34.820Z,81.2
2018-06-17T02:17:15.364Z,81.59
2018-06-17T02:17:55.829Z,81.11
2018-06-17T02:18:36.316Z,81.4
2018-06-17T02:19:16.788Z,81.4
2018-06-17T02:19:57.303Z,81.3
2018-06-17T02:20:37.789Z,81.01
2018-06-17T02:21:18.334Z,80.53
2018-06-17T02:21:58.804Z,80.95
2018-06-17T02:22:39.288Z,80.62
2018-06-17T02:23:19.794Z,80.76
2018-06-17T02:24:00.304Z,80.95
2018-06-17T02:24:40.808Z,81.15
2018-06-17T02:25:21.284Z,81.24
2018-06-17T02:26:01.810Z,81.3
2018-06-17T02:26:42.262Z,81.4
2018-06-17T02:27:22.745Z,81.3
2018-06-17T02:28:03.282Z,81.88
2018-06-17T02:28:43.784Z,81.98
2018-06-17T02:29:24.287Z,82.26
2018-06-17T02:30:04.801Z,82.75
2018-06-17T02:30:45.297Z,82.36
2018-06-17T02:31:25.743Z,82.56
2018-06-17T02:32:06.187Z,82.56
2018-06-17T02:32:46.741Z,82.56
2018-06-17T02:33:27.223Z,82.65
2018-06-17T02:34:07.732Z,82.26
2018-06-17T02:34:48.251Z,82.07
2018-06-17T02:35:28.813Z,82.17
2018-06-17T02:36:09.333Z,82.46
2018-06-17T02:36:49.811Z,82.31
2018-06-17T02:37:30.289Z,82.17
2018-06-17T02:38:10.806Z,82.17
2018-06-17T02:38:51.273Z,82.07
2018-06-17T02:39:31.804Z,81.98
2018-06-17T02:40:12.294Z,82.07
2018-06-17T02:40:52.942Z,82.07
2018-06-17T02:41:33.364Z,81.88
2018-06-17T02:42:13.820Z,82.26
2018-06-17T02:42:54.337Z,82.26
2018-06-17T02:43:34.842Z,82.26
2018-06-17T02:44:15.392Z,81.98
2018-06-17T02:44:55.854Z,81.98
2018-06-17T02:45:36.375Z,82.07
2018-06-17T02:46:16.865Z,82.26
2018-06-17T02:46:57.344Z,82.65
2018-06-17T02:47:37.811Z,82.56
2018-06-17T02:48:18.353Z,82.56
2018-06-17T02:48:58.830Z,82.46
2018-06-17T02:49:39.316Z,82.46
2018-06-17T02:50:19.836Z,82.46
2018-06-17T02:51:00.310Z,82.51
2018-06-17T02:51:40.775Z,82.51
2018-06-17T02:52:21.280Z,82.56
2018-06-17T02:53:01.766Z,82.65
2018-06-17T02:53:42.310Z,82.26
2018-06-17T02:54:22.759Z,82.07
2018-06-17T02:55:03.245Z,82.17
2018-06-17T02:55:43.764Z,81.98
2018-06-17T02:56:24.257Z,81.98
2018-06-17T02:57:04.741Z,82.07
2018-06-17T02:57:45.280Z,81.59
2018-06-17T02:58:25.798Z,81.68
2018-06-17T02:59:06.265Z,82.46
2018-06-17T02:59:46.751Z,81.59
2018-06-17T03:00:27.305Z,81.49
2018-06-17T03:01:07.766Z,81.4
2018-06-17T03:01:48.304Z,81.4
2018-06-17T03:02:28.851Z,81.4
2018-06-17T03:03:09.359Z,81.4
2018-06-17T03:03:49.834Z,81.4
2018-06-17T03:04:30.305Z,81.3
2018-06-17T03:05:10.764Z,81.11
2018-06-17T03:05:51.295Z,81.49
2018-06-17T03:06:31.819Z,81.4
2018-06-17T03:07:12.267Z,81.2
2018-06-17T03:07:52.762Z,81.07
2018-06-17T03:08:33.315Z,81.45
2018-06-17T03:09:13.792Z,81.45
2018-06-17T03:09:54.295Z,82.03
2018-06-17T03:10:34.752Z,81.55
2018-06-17T03:11:15.361Z,81.45
2018-06-17T03:11:55.833Z,82.23
2018-06-17T03:12:36.332Z,82.03
2018-06-17T03:13:16.820Z,82.42
2018-06-17T03:13:57.324Z,81.93
2018-06-17T03:14:37.828Z,81.93
2018-06-17T03:15:18.342Z,82.23
2018-06-17T03:15:58.803Z,82.23
2018-06-17T03:16:39.312Z,82.03
2018-06-17T03:17:19.773Z,82.23
2018-06-17T03:18:00.284Z,82.13
2018-06-17T03:18:40.797Z,82.23
2018-06-17T03:19:21.294Z,82.13
2018-06-17T03:20:01.772Z,82.03
2018-06-17T03:20:42.295Z,82.03
2018-06-17T03:21:22.835Z,82.03
2018-06-17T03:22:03.310Z,82.13
2018-06-17T03:22:43.871Z,81.74
2018-06-17T03:23:24.389Z,81.74
2018-06-17T03:24:04.868Z,82.03
2018-06-17T03:24:45.404Z,82.23
2018-06-17T03:25:25.867Z,81.84
2018-06-17T03:26:06.359Z,81.84
2018-06-17T03:26:46.879Z,82.23
2018-06-17T03:27:27.366Z,82.03
2018-06-17T03:28:07.869Z,81.55
2018-06-17T03:28:48.358Z,81.65
2018-06-17T03:29:28.836Z,81.16
2018-06-17T03:30:09.352Z,81.45
2018-06-17T03:30:49.848Z,81.78
2018-06-17T03:31:30.337Z,81.4
2018-06-17T03:32:10.822Z,81.35
2018-06-17T03:32:51.463Z,81.35
2018-06-17T03:33:31.845Z,81.45
2018-06-17T03:34:12.364Z,81.26
2018-06-17T03:34:52.852Z,81.35
2018-06-17T03:35:33.336Z,81.59
2018-06-17T03:36:13.863Z,81.35
2018-06-17T03:36:54.340Z,81.3
2018-06-17T03:37:34.840Z,81.49
2018-06-17T03:38:15.338Z,81.16
2018-06-17T03:38:55.877Z,81.16
2018-06-17T03:39:36.332Z,81.35
2018-06-17T03:40:16.872Z,81.35
2018-06-17T03:40:57.367Z,81.35
2018-06-17T03:41:37.882Z,81.35
2018-06-17T03:42:18.346Z,81.26
2018-06-17T03:42:58.894Z,81.35
2018-06-17T03:43:39.389Z,81.45
2018-06-17T03:44:19.897Z,81.26
2018-06-17T03:45:00.406Z,81.55
2018-06-17T03:45:40.906Z,80.97
2018-06-17T03:46:21.418Z,80.97
2018-06-17T03:47:01.905Z,80.78
2018-06-17T03:47:42.416Z,80.49
2018-06-17T03:48:22.963Z,80.78
2018-06-17T03:49:03.446Z,80.68
2018-06-17T03:49:43.968Z,81.11
2018-06-17T03:50:24.473Z,80.1
2018-06-17T03:51:04.995Z,79.72
2018-06-17T03:51:45.537Z,80
2018-06-17T03:52:26.057Z,79.75
2018-06-17T03:53:06.574Z,80.05
2018-06-17T03:53:47.068Z,79.08
2018-06-17T03:54:27.582Z,78.99
2018-06-17T03:55:08.087Z,79.08
2018-06-17T03:55:48.588Z,79.47
2018-06-17T03:56:29.061Z,78.99
2018-06-17T03:57:09.552Z,78.89
2018-06-17T03:57:50.071Z,79.08
2018-06-17T03:58:30.604Z,79.08
2018-06-17T03:59:11.124Z,78.99
2018-06-17T03:59:51.650Z,79.08
2018-06-17T04:00:32.179Z,78.89
2018-06-17T04:01:12.693Z,79.08
2018-06-17T04:01:53.219Z,79.27
2018-06-17T04:02:33.736Z,78.79
2018-06-17T04:03:14.271Z,78.89
2018-06-17T04:03:54.802Z,78.79
2018-06-17T04:04:35.372Z,78.85
2018-06-17T04:05:15.895Z,78.79
2018-06-17T04:05:56.422Z,78.85
2018-06-17T04:06:36.941Z,78.5
2018-06-17T04:07:17.470Z,78.59
2018-06-17T04:07:57.978Z,78.89
2018-06-17T04:08:38.504Z,78.5
2018-06-17T04:09:19.028Z,78.5
2018-06-17T04:09:59.562Z,77.92
2018-06-17T04:10:40.071Z,77.63
2018-06-17T04:11:20.592Z,77.73
2018-06-17T04:12:01.125Z,77.73
2018-06-17T04:12:41.652Z,78.31
2018-06-17T04:13:22.168Z,78.31
2018-06-17T04:14:02.691Z,77.83
2018-06-17T04:14:43.203Z,77.63
2018-06-17T04:15:23.704Z,77.63
2018-06-17T04:16:04.320Z,77.44
2018-06-17T04:16:44.781Z,77.34
2018-06-17T04:17:25.307Z,77.05
2018-06-17T04:18:05.749Z,77.15
2018-06-17T04:18:46.259Z,76.47
2018-06-17T04:19:26.760Z,76.57
2018-06-17T04:20:07.230Z,76.76
2018-06-17T04:20:47.710Z,76.57
2018-06-17T04:21:28.204Z,76.67
2018-06-17T04:22:08.688Z,76.18
2018-06-17T04:22:49.196Z,76.18
2018-06-17T04:23:29.713Z,76.09
2018-06-17T04:24:10.241Z,76.03
2018-06-17T04:24:50.709Z,76.12
2018-06-17T04:25:31.217Z,75.64
2018-06-17T04:26:11.716Z,76.18
2018-06-17T04:26:52.233Z,75.84
2018-06-17T04:27:32.663Z,75.93
2018-06-17T04:28:13.181Z,76.03
2018-06-17T04:28:53.696Z,75.93
2018-06-17T04:29:34.197Z,75.54
2018-06-17T04:30:14.668Z,75.45
2018-06-17T04:30:55.177Z,75.26
2018-06-17T04:31:35.724Z,75.64
2018-06-17T04:32:16.185Z,75.45
2018-06-17T04:32:56.673Z,75.99
2018-06-17T04:33:37.181Z,76.09
2018-06-17T04:34:17.687Z,75.41
2018-06-17T04:34:58.139Z,75.74
2018-06-17T04:35:38.640Z,75.99
2018-06-17T04:36:19.164Z,75.79
2018-06-17T04:36:59.655Z,75.79
2018-06-17T04:37:40.179Z,76.03
2018-06-17T04:38:20.652Z,75.99
2018-06-17T04:39:01.163Z,75.64
2018-06-17T04:39:41.656Z,75.99
2018-06-17T04:40:22.122Z,75.99
2018-06-17T04:41:02.626Z,76.37
2018-06-17T04:41:43.103Z,76.18
2018-06-17T04:42:23.593Z,76.47
2018-06-17T04:43:04.137Z,76.37
2018-06-17T04:43:44.699Z,76.37
2018-06-17T04:44:25.223Z,76.28
2018-06-17T04:45:05.755Z,75.99
2018-06-17T04:45:46.240Z,75.45
2018-06-17T04:46:26.813Z,75.16
2018-06-17T04:47:07.246Z,74.68
2018-06-17T04:47:47.782Z,74.96
2018-06-17T04:48:28.335Z,74.87
2018-06-17T04:49:08.876Z,75.35
2018-06-17T04:49:49.310Z,75.64
2018-06-17T04:50:29.837Z,75.54
2018-06-17T04:51:10.327Z,75.26
2018-06-17T04:51:50.792Z,75.45
2018-06-17T04:52:31.293Z,75.64
2018-06-17T04:53:11.813Z,75.35
2018-06-17T04:53:52.287Z,75.35
2018-06-17T04:54:32.770Z,74.87
2018-06-17T04:55:13.323Z,74.42
2018-06-17T04:55:53.779Z,73.68
2018-06-17T04:56:34.266Z,73.59
2018-06-17T04:57:14.832Z,73.39
2018-06-17T04:57:55.287Z,73.49
2018-06-17T04:58:35.795Z,73.59
2018-06-17T04:59:16.256Z,73.46
2018-06-17T04:59:56.755Z,73.36
2018-06-17T05:00:37.255Z,73.46
2018-06-17T05:01:17.726Z,73.46
2018-06-17T05:01:58.244Z,73.36
2018-06-17T05:02:38.742Z,73.65
2018-06-17T05:03:19.185Z,73.84
2018-06-17T05:03:59.667Z,73.55
2018-06-17T05:04:40.213Z,73.55
2018-06-17T05:05:20.717Z,73.36
2018-06-17T05:06:01.213Z,74.04
2018-06-17T05:06:41.770Z,74.23
2018-06-17T05:07:22.271Z,74.23
2018-06-17T05:08:02.725Z,73.94
2018-06-17T05:08:43.246Z,74.13
2018-06-17T05:09:23.751Z,73.65
2018-06-17T05:10:04.218Z,73.74
2018-06-17T05:10:44.729Z,73.65
2018-06-17T05:11:25.192Z,73.65
2018-06-17T05:12:05.797Z,73.36
2018-06-17T05:12:46.242Z,73.07
2018-06-17T05:13:26.772Z,73.26
2018-06-17T05:14:07.244Z,72.78
2018-06-17T05:14:47.753Z,72.97
2018-06-17T05:15:28.236Z,72.39
2018-06-17T05:16:08.722Z,72.33
2018-06-17T05:16:49.248Z,71.36
2018-06-17T05:17:29.737Z,70.14
2018-06-17T05:18:10.249Z,69.95
2018-06-17T05:18:50.739Z,69.85
2018-06-17T05:19:31.264Z,69.27
2018-06-17T05:20:11.745Z,69.37
2018-06-17T05:20:52.254Z,69.27
2018-06-17T05:21:32.761Z,69.27
2018-06-17T05:22:13.257Z,69.27
2018-06-17T05:22:53.714Z,69.37
2018-06-17T05:23:34.245Z,69.17
2018-06-17T05:24:14.725Z,68.79
2018-06-17T05:24:55.284Z,68.88
2018-06-17T05:25:35.721Z,69.37
2018-06-17T05:26:16.220Z,68.18
2018-06-17T05:26:56.722Z,65.63
2018-06-17T05:27:37.249Z,62.52
2018-06-17T05:28:17.737Z,61
2018-06-17T05:28:58.241Z,60.68
2018-06-17T05:29:38.707Z,62.07
2018-06-17T05:30:19.196Z,62.91
2018-06-17T05:30:59.728Z,63.69
2018-06-17T05:31:40.210Z,63.4
2018-06-17T05:32:20.744Z,63.01
2018-06-17T05:33:01.240Z,63.49
2018-06-17T05:33:41.691Z,63.69
2018-06-17T05:34:22.170Z,63.59
2018-06-17T05:35:02.692Z,63.65
2018-06-17T05:35:43.218Z,64.34
2018-06-17T05:36:23.667Z,64.24
2018-06-17T05:37:04.188Z,63.95
2018-06-17T05:37:44.720Z,64.62
2018-06-17T05:38:25.177Z,64.62
2018-06-17T05:39:05.721Z,64.53
2018-06-17T05:39:46.207Z,65.11
2018-06-17T05:40:26.686Z,65.59
2018-06-17T05:41:07.222Z,64.92
2018-06-17T05:41:47.729Z,64.79
2018-06-17T05:42:28.197Z,64.2
2018-06-17T05:43:08.706Z,63.72
2018-06-17T05:43:49.176Z,64.69
2018-06-17T05:44:29.634Z,64.5
2018-06-17T05:45:10.217Z,64.59
2018-06-17T05:45:50.649Z,64.3
2018-06-17T05:46:31.238Z,64.3
2018-06-17T05:47:11.708Z,63.65
2018-06-17T05:47:52.168Z,63.85
2018-06-17T05:48:32.691Z,64.04
2018-06-17T05:49:13.193Z,63.56
2018-06-17T05:49:53.666Z,63.65
2018-06-17T05:50:34.136Z,63.75
2018-06-17T05:51:14.688Z,63.56
2018-06-17T05:51:55.197Z,63.27
2018-06-17T05:52:35.699Z,63.49
2018-06-17T05:53:16.203Z,63.3
2018-06-17T05:53:56.700Z,62.46
2018-06-17T05:54:37.216Z,62.26
2018-06-17T05:55:17.713Z,61.81
2018-06-17T05:55:58.264Z,59.54
2018-06-17T05:56:38.705Z,56.9
2018-06-17T05:57:19.207Z,54.91
2018-06-17T05:57:59.722Z,52.73
2018-06-17T05:58:40.222Z,51.78
2018-06-17T05:59:20.741Z,50.9
2018-06-17T06:00:01.266Z,50.9
2018-06-17T06:00:41.728Z,50.41
2018-06-17T06:01:22.257Z,50.68
2018-06-17T06:02:02.730Z,51.17
2018-06-17T06:02:43.240Z,51.53
2018-06-17T06:03:23.698Z,52.12
2018-06-17T06:04:04.252Z,52.38
2018-06-17T06:04:44.697Z,52.97
2018-06-17T06:05:25.217Z,54.01
2018-06-17T06:06:05.720Z,53.52
2018-06-17T06:06:46.234Z,53.52
2018-06-17T06:07:26.729Z,53.91
2018-06-17T06:08:07.213Z,53.81
2018-06-17T06:08:47.749Z,53.81
2018-06-17T06:09:28.316Z,53.62
2018-06-17T06:10:08.776Z,54.08
2018-06-17T06:10:49.353Z,53.5
2018-06-17T06:11:29.884Z,53.69
2018-06-17T06:12:10.421Z,54.28
2018-06-17T06:12:50.895Z,54.47
2018-06-17T06:13:31.379Z,54.76
2018-06-17T06:14:11.969Z,54.86
2018-06-17T06:14:52.414Z,54.76
2018-06-17T06:15:32.889Z,55.03
2018-06-17T06:16:13.394Z,54.93
2018-06-17T06:16:53.884Z,56.07
2018-06-17T06:17:34.390Z,55.98
2018-06-17T06:18:14.933Z,55.88
2018-06-17T06:18:55.424Z,56.36
2018-06-17T06:19:35.894Z,55.78
2018-06-17T06:20:16.398Z,54.93
2018-06-17T06:20:56.918Z,55.03
2018-06-17T06:21:37.407Z,55.03
2018-06-17T06:22:17.910Z,55.15
2018-06-17T06:22:59.313Z,54.38
2018-06-17T06:23:39.861Z,54.28
2018-06-17T06:24:20.320Z,54.01
2018-06-17T06:25:00.820Z,53.62
2018-06-17T06:25:41.358Z,53.23
2018-06-17T06:26:21.825Z,53.04
2018-06-17T06:27:02.345Z,52.67
2018-06-17T06:27:42.917Z,52.48
2018-06-17T06:28:23.365Z,51.92
2018-06-17T06:29:03.853Z,51.7
2018-06-17T06:29:44.418Z,51.82
2018-06-17T06:30:24.907Z,51.63
2018-06-17T06:31:05.366Z,51.63
2018-06-17T06:31:45.871Z,51.53
2018-06-17T06:32:26.345Z,51.26
2018-06-17T06:33:07.211Z,50.97
2018-06-17T06:33:47.960Z,51.04
2018-06-17T06:34:28.456Z,51.04
2018-06-17T06:35:09.189Z,51.53
2018-06-17T06:35:49.625Z,51.34
2018-06-17T06:36:30.071Z,51.17
2018-06-17T06:37:10.650Z,51.24
2018-06-17T06:37:51.142Z,51.73
2018-06-17T06:38:31.633Z,51.43
2018-06-17T06:39:12.083Z,51.65
2018-06-17T06:39:52.567Z,51.85
2018-06-17T06:40:33.062Z,51.63
2018-06-17T06:41:13.739Z,51.73
2018-06-17T06:41:54.136Z,51.14
2018-06-17T06:42:34.633Z,51.34
2018-06-17T06:43:15.152Z,51.04
2018-06-17T06:43:55.637Z,51.34
2018-06-17T06:44:36.124Z,51.02
2018-06-17T06:45:16.616Z,51.41
2018-06-17T06:45:57.179Z,51.24
2018-06-17T06:46:37.692Z,51.24
2018-06-17T06:47:18.166Z,50.68
2018-06-17T06:47:58.636Z,50.78
2018-06-17T06:48:39.134Z,50.58
2018-06-17T06:49:19.615Z,50.95
2018-06-17T06:50:00.136Z,50.85
2018-06-17T06:50:40.575Z,51.14
2018-06-17T06:51:21.119Z,51.73
2018-06-17T06:52:01.567Z,52.09
2018-06-17T06:52:42.074Z,52.19
2018-06-17T06:53:22.619Z,52.58
2018-06-17T06:54:03.054Z,52.77
2018-06-17T06:54:43.562Z,52.55
2018-06-17T06:55:24.069Z,52.55
2018-06-17T06:56:04.580Z,52.45
2018-06-17T06:56:45.065Z,52.55
2018-06-17T06:57:25.594Z,52.48
2018-06-17T06:58:06.031Z,52.28
2018-06-17T06:58:46.556Z,51.9
2018-06-17T06:59:27.057Z,52.06
2018-06-17T07:00:07.572Z,51.87
2018-06-17T07:00:48.060Z,51.8
2018-06-17T07:01:28.632Z,51.87
2018-06-17T07:02:09.059Z,52.09
2018-06-17T07:02:49.561Z,51.67
2018-06-17T07:03:30.078Z,52.65
2018-06-17T07:04:10.555Z,52.16
2018-06-17T07:04:51.029Z,51.99
2018-06-17T07:05:31.502Z,51.51
2018-06-17T07:06:12.186Z,51.7
2018-06-17T07:06:52.667Z,51.97
2018-06-17T07:07:33.146Z,52.26
2018-06-17T07:08:13.656Z,52.09
2018-06-17T07:08:54.139Z,51.61
2018-06-17T07:09:34.643Z,51.51
2018-06-17T07:10:15.171Z,51.67
2018-06-17T07:10:55.649Z,51.97
2018-06-17T07:11:36.151Z,51.97
2018-06-17T07:12:16.700Z,51.97
2018-06-17T07:12:57.216Z,52.36
2018-06-17T07:13:37.685Z,52.36
2018-06-17T07:14:18.209Z,52.16
2018-06-17T07:14:58.676Z,52.16
2018-06-17T07:15:39.188Z,51.97
2018-06-17T07:16:19.698Z,51.97
2018-06-17T07:17:00.328Z,51.55
2018-06-17T07:17:40.820Z,51.45
2018-06-17T07:18:21.311Z,51.77
2018-06-17T07:19:01.825Z,51.48
2018-06-17T07:19:42.350Z,51.58
2018-06-17T07:20:22.895Z,51.48
2018-06-17T07:21:03.336Z,51.48
2018-06-17T07:21:43.850Z,51.39
2018-06-17T07:22:24.333Z,50.99
2018-06-17T07:23:04.878Z,51.39
2018-06-17T07:23:45.343Z,51.29
2018-06-17T07:24:25.846Z,51.58
2018-06-17T07:25:06.406Z,51.67
2018-06-17T07:25:46.847Z,51.77
2018-06-17T07:26:27.357Z,51.41
2018-06-17T07:27:07.823Z,50.99
2018-06-17T07:27:48.356Z,50.9
2018-06-17T07:28:29.386Z,50.92
2018-06-17T07:29:09.948Z,51.31
2018-06-17T07:29:50.475Z,51.7
2018-06-17T07:30:30.997Z,51.97
2018-06-17T07:31:11.542Z,51.67
2018-06-17T07:31:52.065Z,51.39
2018-06-17T07:32:32.604Z,51.19
2018-06-17T07:33:13.115Z,51.09
2018-06-17T07:33:53.649Z,50.9
2018-06-17T07:34:34.195Z,50.51
2018-06-17T07:35:14.700Z,50.82
2018-06-17T07:35:55.229Z,50.73
2018-06-17T07:36:35.744Z,50.24
2018-06-17T07:37:16.275Z,49.76
2018-06-17T07:37:56.799Z,49.85
2018-06-17T07:38:37.334Z,49.66
2018-06-17T07:39:17.831Z,49.85
2018-06-17T07:39:58.341Z,49.37
2018-06-17T07:40:38.864Z,49.46
2018-06-17T07:41:19.361Z,49.24
2018-06-17T07:41:59.886Z,49.44
2018-06-17T07:42:40.407Z,49.76
2018-06-17T07:43:20.921Z,49.34
2018-06-17T07:44:01.450Z,49.92
2018-06-17T07:44:41.941Z,49.73
2018-06-17T07:45:22.431Z,49.34
2018-06-17T07:46:02.941Z,49.44
2018-06-17T07:46:43.488Z,48.75
2018-06-17T07:47:24.039Z,48.85
2018-06-17T07:48:04.544Z,48.66
2018-06-17T07:48:45.066Z,48.95
2018-06-17T07:49:25.615Z,48.75
2018-06-17T07:50:06.096Z,48.66
2018-06-17T07:50:46.660Z,48.85
2018-06-17T07:51:27.177Z,48.66
2018-06-17T07:52:07.708Z,49.15
2018-06-17T07:52:48.241Z,48.75
2018-06-17T07:53:28.791Z,48.95
2018-06-17T07:54:09.285Z,49.15
2018-06-17T07:54:49.789Z,48.66
2018-06-17T07:55:30.299Z,48.66
2018-06-17T07:56:10.823Z,48.75
2018-06-17T07:56:51.276Z,48.95
2018-06-17T07:57:31.761Z,49.17
2018-06-17T07:58:12.244Z,48.95
2018-06-17T07:58:52.776Z,49.34
2018-06-17T07:59:33.300Z,49.34
2018-06-17T08:00:13.833Z,49.44
2018-06-17T08:00:54.316Z,49.44
2018-06-17T08:01:34.832Z,49.27
2018-06-17T08:02:15.506Z,48.95
2018-06-17T08:02:56.056Z,49.07
2018-06-17T08:03:36.631Z,49.07
2018-06-17T08:04:17.064Z,48.97
2018-06-17T08:04:57.536Z,49.27
2018-06-17T08:05:38.037Z,48.58
2018-06-17T08:06:18.508Z,48.97
2018-06-17T08:06:59.031Z,48.88
2018-06-17T08:07:39.562Z,49.07
2018-06-17T08:08:20.093Z,48.58
2018-06-17T08:09:00.649Z,48.88
2018-06-17T08:09:41.166Z,48.97
2018-06-17T08:10:21.704Z,48.97
2018-06-17T08:11:02.242Z,49.15
2018-06-17T08:11:42.773Z,49.34
2018-06-17T08:12:23.293Z,49.05
2018-06-17T08:13:03.818Z,48.75
2018-06-17T08:13:45.188Z,48.66
2018-06-17T08:14:25.706Z,48.46
2018-06-17T08:15:06.245Z,48.85
2018-06-17T08:15:46.797Z,49.05
2018-06-17T08:16:27.337Z,49.34
2018-06-17T08:17:07.849Z,50.02
2018-06-17T08:17:48.375Z,49.8
2018-06-17T08:18:28.890Z,49.73
2018-06-17T08:19:09.430Z,49.34
2018-06-17T08:19:49.948Z,49.54
2018-06-17T08:20:30.497Z,49.54
2018-06-17T08:21:11.028Z,49.44
2018-06-17T08:21:51.562Z,49.15
2018-06-17T08:22:32.093Z,49.34
2018-06-17T08:23:13.438Z,49.05
2018-06-17T08:23:54.025Z,49.15
2018-06-17T08:24:34.594Z,49.17
2018-06-17T08:25:15.108Z,50.02
2018-06-17T08:25:55.636Z,49.27
2018-06-17T08:26:36.155Z,49.07
2018-06-17T08:27:16.685Z,48.8
2018-06-17T08:27:57.223Z,48.8
2018-06-17T08:28:37.758Z,48.73
2018-06-17T08:29:18.282Z,48.44
2018-06-17T08:29:58.833Z,49.02
2018-06-17T08:30:39.325Z,48.83
2018-06-17T08:31:19.829Z,49.02
2018-06-17T08:32:00.367Z,48.83
2018-06-17T08:32:40.898Z,48.95
2018-06-17T08:33:21.390Z,48.66
2018-06-17T08:34:01.902Z,47.97
2018-06-17T08:34:42.448Z,48.14
2018-06-17T08:35:22.975Z,47.46
2018-06-17T08:36:03.477Z,47.49
2018-06-17T08:36:43.968Z,47
2018-06-17T08:37:24.478Z,48.07
2018-06-17T08:38:05.007Z,47.58
2018-06-17T08:38:45.558Z,47.88
2018-06-17T08:39:26.040Z,47.88
2018-06-17T08:40:06.541Z,47.46
2018-06-17T08:40:47.041Z,47.66
2018-06-17T08:41:27.524Z,47.66
2018-06-17T08:42:08.090Z,47.95
2018-06-17T08:42:48.639Z,48.05